createdAt,value
2022-08-20T00:00:46.389Z,17.90
2022-08-20T00:03:18.930Z,17.90
2022-08-20T00:05:56.719Z,17.80
2022-08-20T00:08:24.272Z,17.80
2022-08-20T00:10:55.642Z,17.90
2022-08-20T00:13:27.407Z,17.90
2022-08-20T00:15:54.564Z,18.00
2022-08-20T00:18:22.934Z,18.00
2022-08-20T00:20:52.612Z,18.10
2022-08-20T00:23:20.491Z,18.00
2022-08-20T00:25:48.454Z,18.00
2022-08-20T00:28:15.499Z,17.90
2022-08-20T00:30:44.543Z,17.90
2022-08-20T00:33:17.793Z,18.00
2022-08-20T00:35:49.229Z,18.10
2022-08-20T00:38:16.139Z,18.20
2022-08-20T00:40:55.025Z,18.30
2022-08-20T00:44:09.183Z,18.20
2022-08-20T00:46:37.788Z,17.90
2022-08-20T00:49:08.250Z,17.90
2022-08-20T00:51:41.023Z,18.00
2022-08-20T00:54:29.356Z,18.00
2022-08-20T00:57:08.535Z,18.00
2022-08-20T00:59:38.279Z,18.20
2022-08-20T01:02:08.768Z,18.30
2022-08-20T01:04:36.643Z,18.30
2022-08-20T01:07:05.956Z,18.10
2022-08-20T01:09:58.081Z,18.10
2022-08-20T01:12:23.661Z,18.00
2022-08-20T01:14:51.016Z,17.90
2022-08-20T01:17:24.298Z,17.90
2022-08-20T01:20:02.042Z,17.80
2022-08-20T01:22:58.835Z,17.90
2022-08-20T01:25:40.942Z,17.90
2022-08-20T01:28:08.651Z,17.80
2022-08-20T01:30:37.007Z,17.80
2022-08-20T01:33:04.944Z,17.80
2022-08-20T01:35:37.381Z,18.00
2022-08-20T01:38:04.568Z,18.00
2022-08-20T01:41:08.991Z,18.00
2022-08-20T01:43:37.040Z,17.90
2022-08-20T01:46:05.064Z,17.60
2022-08-20T01:48:32.703Z,17.50
2022-08-20T01:51:17.580Z,17.60
2022-08-20T01:53:48.001Z,17.70
2022-08-20T01:56:20.153Z,17.70
2022-08-20T01:58:49.804Z,17.30
2022-08-20T02:01:46.756Z,17.30
2022-08-20T02:04:15.380Z,17.20
2022-08-20T02:06:56.531Z,17.10
2022-08-20T02:09:25.993Z,17.00
2022-08-20T02:11:53.358Z,16.90
2022-08-20T02:14:20.784Z,16.90
2022-08-20T02:16:54.768Z,16.80
2022-08-20T02:19:35.456Z,16.70
2022-08-20T02:22:08.957Z,16.90
2022-08-20T02:24:35.745Z,16.90
2022-08-20T02:27:02.935Z,16.70
2022-08-20T02:29:29.857Z,16.80
2022-08-20T02:32:24.352Z,16.80
2022-08-20T02:34:43.687Z,16.80
2022-08-20T02:37:11.839Z,16.90
2022-08-20T02:39:38.684Z,16.80
2022-08-20T02:42:05.666Z,16.80
2022-08-20T02:44:32.503Z,16.70
2022-08-20T02:47:00.248Z,16.60
2022-08-20T02:49:27.455Z,16.60
2022-08-20T02:51:54.450Z,16.60
2022-08-20T02:54:21.207Z,16.60
2022-08-20T02:56:48.096Z,16.60
2022-08-20T02:59:19.696Z,16.70
2022-08-20T03:01:55.796Z,16.80
2022-08-20T03:04:29.211Z,16.80
2022-08-20T03:06:56.712Z,16.80
2022-08-20T03:09:24.118Z,16.60
2022-08-20T03:11:51.316Z,16.40
2022-08-20T03:14:18.119Z,16.30
2022-08-20T03:16:44.887Z,16.40
2022-08-20T03:19:13.375Z,16.40
2022-08-20T03:21:40.233Z,16.40
2022-08-20T03:24:07.254Z,16.40
2022-08-20T03:26:34.333Z,16.20
2022-08-20T03:29:01.590Z,16.00
2022-08-20T03:31:29.355Z,16.10
2022-08-20T03:33:56.170Z,16.10
2022-08-20T03:36:28.602Z,15.90
2022-08-20T03:38:57.985Z,16.00
2022-08-20T03:41:25.175Z,16.20
2022-08-20T03:43:52.046Z,16.10
2022-08-20T03:46:21.998Z,16.10
2022-08-20T03:48:56.445Z,16.10
2022-08-20T03:51:29.039Z,16.00
2022-08-20T03:53:55.980Z,16.10
2022-08-20T03:56:22.784Z,16.20
2022-08-20T03:58:49.649Z,16.00
2022-08-20T04:01:45.374Z,16.10
2022-08-20T04:04:03.580Z,16.30
2022-08-20T04:06:30.528Z,16.30
2022-08-20T04:08:57.983Z,16.10
2022-08-20T04:11:24.878Z,16.10
2022-08-20T04:13:51.864Z,16.00
2022-08-20T04:16:19.482Z,15.80
2022-08-20T04:18:56.051Z,15.90
2022-08-20T04:21:29.665Z,16.10
2022-08-20T04:24:01.155Z,16.00
2022-08-20T04:26:28.142Z,15.90
2022-08-20T04:28:55.626Z,16.00
2022-08-20T04:31:25.339Z,16.10
2022-08-20T04:33:52.702Z,16.10
2022-08-20T04:36:19.658Z,16.00
2022-08-20T04:38:48.123Z,16.10
2022-08-20T04:41:23.011Z,16.10
2022-08-20T04:43:54.628Z,15.90
2022-08-20T04:46:25.495Z,15.90
2022-08-20T04:48:53.007Z,15.90
2022-08-20T04:51:22.938Z,16.00
2022-08-20T04:53:53.892Z,16.10
2022-08-20T04:56:29.792Z,16.10
2022-08-20T04:59:00.033Z,16.20
2022-08-20T05:01:28.050Z,16.30
2022-08-20T05:03:55.903Z,16.40
2022-08-20T05:06:26.631Z,16.50
2022-08-20T05:08:55.886Z,16.50
2022-08-20T05:11:35.013Z,16.40
2022-08-20T05:14:06.160Z,16.40
2022-08-20T05:16:38.478Z,16.40
2022-08-20T05:19:10.305Z,16.40
2022-08-20T05:21:37.577Z,16.40
2022-08-20T05:24:05.430Z,16.40
2022-08-20T05:26:33.385Z,16.40
2022-08-20T05:29:00.222Z,16.50
2022-08-20T05:31:33.305Z,16.60
2022-08-20T05:34:09.536Z,16.70
2022-08-20T05:36:40.192Z,16.80
2022-08-20T05:39:07.299Z,16.80
2022-08-20T05:41:34.147Z,16.80
2022-08-20T05:44:01.562Z,16.90
2022-08-20T05:46:31.227Z,16.80
2022-08-20T05:48:59.478Z,16.80
2022-08-20T05:51:28.202Z,16.70
2022-08-20T05:53:55.318Z,16.80
2022-08-20T05:56:26.704Z,16.80
2022-08-20T05:58:54.125Z,17.00
2022-08-20T06:01:21.676Z,17.10
2022-08-20T06:04:07.087Z,17.20
2022-08-20T06:06:45.047Z,17.30
2022-08-20T06:09:14.348Z,17.40
2022-08-20T06:11:41.132Z,17.50
2022-08-20T06:14:08.069Z,17.50
2022-08-20T06:16:34.852Z,17.60
2022-08-20T06:19:04.988Z,17.80
2022-08-20T06:21:32.342Z,17.90
2022-08-20T06:24:01.343Z,18.00
2022-08-20T06:26:29.919Z,18.10
2022-08-20T06:28:59.253Z,18.20
2022-08-20T06:31:27.557Z,18.30
2022-08-20T06:33:54.567Z,18.30
2022-08-20T06:36:21.671Z,18.40
2022-08-20T06:38:48.748Z,18.40
2022-08-20T06:41:16.532Z,18.50
2022-08-20T06:43:43.485Z,18.50
2022-08-20T06:46:10.941Z,18.60
2022-08-20T06:48:38.462Z,18.70
2022-08-20T06:51:06.833Z,18.80
2022-08-20T06:53:33.749Z,18.80
2022-08-20T06:56:00.632Z,18.80
2022-08-20T06:58:38.127Z,18.90
2022-08-20T07:01:10.773Z,19.00
2022-08-20T07:03:54.893Z,19.00
2022-08-20T07:06:25.622Z,19.10
2022-08-20T07:08:53.417Z,19.20
2022-08-20T07:11:26.668Z,19.30
2022-08-20T07:13:56.713Z,19.40
2022-08-20T07:16:24.004Z,19.40
2022-08-20T07:18:50.818Z,19.50
2022-08-20T07:21:17.691Z,19.50
2022-08-20T07:23:44.622Z,19.60
2022-08-20T07:26:12.888Z,19.60
2022-08-20T07:28:39.916Z,19.70
2022-08-20T07:31:25.592Z,19.80
2022-08-20T07:33:54.235Z,19.80
2022-08-20T07:36:21.467Z,19.90
2022-08-20T07:38:52.399Z,20.20
2022-08-20T07:41:20.963Z,20.50
2022-08-20T07:43:48.136Z,20.60
2022-08-20T07:46:17.701Z,20.80
2022-08-20T07:48:49.963Z,21.10
2022-08-20T07:51:19.161Z,21.20
2022-08-20T07:53:47.497Z,21.20
2022-08-20T07:56:21.625Z,21.40
2022-08-20T07:58:55.342Z,21.60
2022-08-20T08:01:30.339Z,21.70
2022-08-20T08:03:58.423Z,21.80
2022-08-20T08:06:30.427Z,21.90
2022-08-20T08:09:11.697Z,21.90
2022-08-20T08:11:44.929Z,22.10
2022-08-20T08:14:14.493Z,22.30
2022-08-20T08:16:45.656Z,22.50
2022-08-20T08:19:16.900Z,22.50
2022-08-20T08:21:44.387Z,22.50
2022-08-20T08:24:13.571Z,22.50
2022-08-20T08:26:44.104Z,22.70
2022-08-20T08:29:12.169Z,22.80
2022-08-20T08:31:41.024Z,22.70
2022-08-20T08:34:08.289Z,23.00
2022-08-20T08:36:35.080Z,23.20
2022-08-20T08:39:02.087Z,23.30
2022-08-20T08:41:40.711Z,23.40
2022-08-20T08:44:12.677Z,23.60
2022-08-20T08:46:43.292Z,23.60
2022-08-20T08:49:14.275Z,23.40
2022-08-20T08:52:04.980Z,23.50
2022-08-20T08:54:34.245Z,23.60
2022-08-20T08:57:02.142Z,23.80
2022-08-20T08:59:46.213Z,24.00
2022-08-20T09:02:23.562Z,24.10
2022-08-20T09:04:51.667Z,24.10
2022-08-20T09:07:18.568Z,24.30
2022-08-20T09:09:46.901Z,24.10
2022-08-20T09:12:22.947Z,24.00
2022-08-20T09:14:51.634Z,23.80
2022-08-20T09:17:20.420Z,23.50
2022-08-20T09:19:47.920Z,23.60
2022-08-20T09:22:18.040Z,23.50
2022-08-20T09:24:45.370Z,23.50
2022-08-20T09:27:12.403Z,23.70
2022-08-20T09:29:40.212Z,24.00
2022-08-20T09:32:14.784Z,24.10
2022-08-20T09:34:44.592Z,24.00
2022-08-20T09:37:11.853Z,23.80
2022-08-20T09:39:38.904Z,23.80
2022-08-20T09:42:17.299Z,23.90
2022-08-20T09:44:45.035Z,24.00
2022-08-20T09:47:12.351Z,23.90
2022-08-20T09:49:39.727Z,23.80
2022-08-20T09:52:09.144Z,23.80
2022-08-20T09:54:37.481Z,24.00
2022-08-20T09:57:07.340Z,24.20
2022-08-20T09:59:35.844Z,24.60
2022-08-20T10:02:03.030Z,25.10
2022-08-20T10:04:29.940Z,25.50
2022-08-20T10:06:56.822Z,25.70
2022-08-20T10:09:24.224Z,25.70
2022-08-20T10:11:51.028Z,25.40
2022-08-20T10:14:17.815Z,25.20
2022-08-20T10:16:44.755Z,24.70
2022-08-20T10:19:11.601Z,24.30
2022-08-20T10:21:39.269Z,24.20
2022-08-20T10:24:06.624Z,24.20
2022-08-20T10:26:33.432Z,24.10
2022-08-20T10:29:00.223Z,24.00
2022-08-20T10:31:27.022Z,23.90
2022-08-20T10:33:53.858Z,23.80
2022-08-20T10:36:20.649Z,23.70
2022-08-20T10:38:49.031Z,23.70
2022-08-20T10:41:15.972Z,23.70
2022-08-20T10:43:42.747Z,23.70
2022-08-20T10:46:09.795Z,23.70
2022-08-20T10:48:36.622Z,23.50
2022-08-20T10:51:03.700Z,23.50
2022-08-20T10:53:31.146Z,23.40
2022-08-20T10:55:58.052Z,23.30
2022-08-20T10:58:25.612Z,23.20
2022-08-20T11:00:52.997Z,22.90
2022-08-20T11:03:20.357Z,22.70
2022-08-20T11:05:47.779Z,22.40
2022-08-20T11:08:14.627Z,22.20
2022-08-20T11:11:00.288Z,22.00
2022-08-20T11:13:27.248Z,21.90
2022-08-20T11:15:54.139Z,21.80
2022-08-20T11:18:20.980Z,21.80
2022-08-20T11:20:47.814Z,21.70
2022-08-20T11:23:14.627Z,21.70
2022-08-20T11:25:41.396Z,21.50
2022-08-20T11:28:08.441Z,21.30
2022-08-20T11:30:37.482Z,21.30
2022-08-20T11:33:05.476Z,21.20
2022-08-20T11:35:49.052Z,20.90
2022-08-20T11:38:18.138Z,20.70
2022-08-20T11:40:46.907Z,20.40
2022-08-20T11:43:16.407Z,20.10
2022-08-20T11:45:50.073Z,20.10
2022-08-20T11:48:17.986Z,20.00
2022-08-20T11:50:45.695Z,20.00
2022-08-20T11:53:12.654Z,19.70
2022-08-20T11:55:40.335Z,19.50
2022-08-20T11:58:07.876Z,19.50
2022-08-20T12:00:36.858Z,19.40
2022-08-20T12:03:09.046Z,19.10
2022-08-20T12:05:42.799Z,19.00
2022-08-20T12:08:10.749Z,19.30
2022-08-20T12:10:55.071Z,19.40
2022-08-20T12:13:21.860Z,19.50
2022-08-20T12:15:57.596Z,19.30
2022-08-20T12:18:27.058Z,19.00
2022-08-20T12:20:54.585Z,19.00
2022-08-20T12:23:21.373Z,18.80
2022-08-20T12:25:48.223Z,18.70
2022-08-20T12:28:15.371Z,18.80
2022-08-20T12:30:42.385Z,18.70
2022-08-20T12:33:09.164Z,18.70
2022-08-20T12:35:36.316Z,18.70
2022-08-20T12:38:05.269Z,18.80
2022-08-20T12:40:33.842Z,18.80
2022-08-20T12:43:02.006Z,18.90
2022-08-20T12:45:29.848Z,18.90
2022-08-20T12:48:08.696Z,18.80
2022-08-20T12:50:36.439Z,18.90
2022-08-20T12:53:03.875Z,18.70
2022-08-20T12:55:31.435Z,18.80
2022-08-20T12:58:01.233Z,18.90
2022-08-20T13:00:43.229Z,19.10
2022-08-20T13:03:11.974Z,19.30
2022-08-20T13:05:39.426Z,19.40
2022-08-20T13:08:08.882Z,19.40
2022-08-20T13:11:02.924Z,19.40
2022-08-20T13:17:11.031Z,19.30
2022-08-20T13:19:39.794Z,19.30
2022-08-20T13:22:06.868Z,19.30
2022-08-20T13:24:34.104Z,19.30
2022-08-20T13:27:11.263Z,19.40
2022-08-20T13:29:38.335Z,19.50
2022-08-20T13:32:05.999Z,19.60
2022-08-20T13:34:32.800Z,19.70
2022-08-20T13:36:59.699Z,19.90
2022-08-20T13:39:26.528Z,19.80
2022-08-20T13:41:53.371Z,19.80
2022-08-20T13:44:20.238Z,19.80
2022-08-20T13:46:58.659Z,19.80
2022-08-20T13:49:25.455Z,19.90
2022-08-20T13:51:55.608Z,19.90
2022-08-20T13:54:22.394Z,20.00
2022-08-20T13:56:50.825Z,20.20
2022-08-20T13:59:17.650Z,20.50
2022-08-20T14:01:44.533Z,20.60
2022-08-20T14:04:11.361Z,20.70
2022-08-20T14:06:38.170Z,21.00
2022-08-20T14:09:05.018Z,21.00
2022-08-20T14:11:31.793Z,21.10
2022-08-20T14:13:58.587Z,21.20
2022-08-20T14:16:33.364Z,21.20
2022-08-20T14:19:02.499Z,21.10
2022-08-20T14:21:29.270Z,21.10
2022-08-20T14:23:58.323Z,21.00
2022-08-20T14:26:25.279Z,21.20
2022-08-20T14:28:52.103Z,21.40
2022-08-20T14:31:18.888Z,21.60
2022-08-20T14:33:45.653Z,21.60
2022-08-20T14:36:12.432Z,21.70
2022-08-20T14:38:44.990Z,21.80
2022-08-20T14:41:12.075Z,21.70
2022-08-20T14:43:38.871Z,21.70
2022-08-20T14:46:06.218Z,21.80
2022-08-20T14:48:33.040Z,21.80
2022-08-20T14:51:00.810Z,21.80
2022-08-20T14:53:27.666Z,21.70
2022-08-20T14:55:54.492Z,21.80
2022-08-20T14:58:21.290Z,21.80
2022-08-20T15:00:48.200Z,21.80
2022-08-20T15:03:15.053Z,21.80
2022-08-20T15:05:42.053Z,21.80
2022-08-20T15:08:11.088Z,21.70
2022-08-20T15:10:39.216Z,21.80
2022-08-20T15:13:06.171Z,21.80
2022-08-20T15:15:33.022Z,21.70
2022-08-20T15:18:00.596Z,21.70
2022-08-20T15:20:29.768Z,21.70
2022-08-20T15:22:56.907Z,21.70
2022-08-20T15:25:27.310Z,21.60
2022-08-20T15:28:04.570Z,21.60
2022-08-20T15:30:31.840Z,21.60
2022-08-20T15:32:59.135Z,21.50
2022-08-20T15:35:28.457Z,21.40
2022-08-20T15:37:57.100Z,21.50
2022-08-20T15:40:28.499Z,21.50
2022-08-20T15:42:57.629Z,21.50
2022-08-20T15:45:25.104Z,21.40
2022-08-20T15:47:59.696Z,21.40
2022-08-20T15:51:00.493Z,21.40
2022-08-20T15:53:36.372Z,21.50
2022-08-20T15:56:20.603Z,21.50
2022-08-20T15:58:59.463Z,21.40
2022-08-20T16:01:45.474Z,21.40
2022-08-20T16:04:24.378Z,21.50
2022-08-20T16:06:56.319Z,21.40
2022-08-20T16:09:55.843Z,21.40
2022-08-20T16:12:39.170Z,21.40
2022-08-20T16:15:17.385Z,21.40
2022-08-20T16:17:52.890Z,21.40
2022-08-20T16:20:35.284Z,21.40
2022-08-20T16:23:03.864Z,21.40
2022-08-20T16:25:43.609Z,21.40
2022-08-20T16:28:26.503Z,21.30
2022-08-20T16:31:04.290Z,21.30
2022-08-20T16:34:04.781Z,21.30
2022-08-20T16:37:15.790Z,21.30
2022-08-20T16:40:05.018Z,21.30
2022-08-20T16:42:38.792Z,21.30
2022-08-20T16:45:10.042Z,21.30
2022-08-20T16:47:38.512Z,21.30
2022-08-20T16:50:16.147Z,21.30
2022-08-20T16:52:45.255Z,21.30
2022-08-20T16:55:12.994Z,21.20
2022-08-20T16:57:39.963Z,21.20
2022-08-20T17:00:18.941Z,21.10
2022-08-20T17:03:07.659Z,21.10
2022-08-20T17:05:48.812Z,21.20
2022-08-20T17:08:31.879Z,21.20
2022-08-20T17:11:01.254Z,21.20
2022-08-20T17:13:31.764Z,21.00
2022-08-20T17:16:21.590Z,20.90
2022-08-20T17:18:53.864Z,20.90
2022-08-20T17:21:28.268Z,20.80
2022-08-20T17:24:06.383Z,20.80
2022-08-20T17:26:36.882Z,20.80
2022-08-20T17:29:21.190Z,20.70
2022-08-20T17:31:54.225Z,20.40
2022-08-20T17:34:25.127Z,20.30
2022-08-20T17:36:54.500Z,20.20
2022-08-20T17:39:22.523Z,20.20
2022-08-20T17:41:52.590Z,20.20
2022-08-20T17:44:31.103Z,20.10
2022-08-20T17:46:59.921Z,20.10
2022-08-20T17:49:43.233Z,19.90
2022-08-20T17:52:39.191Z,19.90
2022-08-20T17:55:08.444Z,19.90
2022-08-20T17:57:38.698Z,19.80
2022-08-20T18:00:15.833Z,19.60
2022-08-20T18:02:44.023Z,19.60
2022-08-20T18:05:20.425Z,19.60
2022-08-20T18:08:14.924Z,19.60
2022-08-20T18:11:10.632Z,19.30
2022-08-20T18:14:04.808Z,19.30
2022-08-20T18:16:43.171Z,19.30
2022-08-20T18:19:37.607Z,19.30
2022-08-20T18:22:13.253Z,19.30
2022-08-20T18:24:57.711Z,19.40
2022-08-20T18:27:28.145Z,19.20
2022-08-20T18:29:58.998Z,19.10
2022-08-20T18:32:38.978Z,19.40
2022-08-20T18:35:31.677Z,19.50
2022-08-20T18:38:24.089Z,19.30
2022-08-20T18:40:55.084Z,19.30
2022-08-20T18:43:31.554Z,19.30
2022-08-20T18:46:21.727Z,19.30
2022-08-20T18:48:55.291Z,19.10
2022-08-20T18:51:28.851Z,19.10
2022-08-20T18:53:55.888Z,19.00
2022-08-20T18:56:41.499Z,19.00
2022-08-20T18:59:22.538Z,19.10
2022-08-20T19:01:49.661Z,19.20
2022-08-20T19:04:37.271Z,19.10
2022-08-20T19:07:56.596Z,19.10
2022-08-20T19:11:06.972Z,19.10
2022-08-20T19:20:56.225Z,18.90
2022-08-20T19:23:26.055Z,19.00
2022-08-20T19:25:59.812Z,18.90
2022-08-20T19:28:59.485Z,18.80
2022-08-20T19:35:17.692Z,18.90
2022-08-20T19:37:51.657Z,18.90
2022-08-20T19:41:38.795Z,18.80
2022-08-20T19:48:15.963Z,18.70
2022-08-20T19:59:49.877Z,18.90
2022-08-20T20:18:59.069Z,19.00
2022-08-20T20:25:48.650Z,19.10
2022-08-20T20:28:22.023Z,19.20
2022-08-20T20:31:09.911Z,19.10
2022-08-20T20:37:49.696Z,19.20
2022-08-20T20:44:36.956Z,18.80
2022-08-20T20:55:37.377Z,17.90
2022-08-20T21:01:55.834Z,18.20
2022-08-20T21:08:14.526Z,18.10
2022-08-20T21:11:06.719Z,18.10
2022-08-20T21:13:33.540Z,18.10
2022-08-20T21:16:00.343Z,17.90
2022-08-20T21:18:27.284Z,17.90
2022-08-20T21:20:54.062Z,18.00
2022-08-20T21:23:20.920Z,18.00
2022-08-20T21:26:27.993Z,18.10
2022-08-20T21:32:42.987Z,17.90
2022-08-20T21:38:56.848Z,17.90
2022-08-20T21:45:28.360Z,17.80
2022-08-20T21:56:04.260Z,17.70
2022-08-20T22:02:29.368Z,17.60
2022-08-20T22:09:00.215Z,17.80
2022-08-20T22:15:13.712Z,17.90
2022-08-20T22:28:02.203Z,17.60
2022-08-20T22:30:29.584Z,17.80
2022-08-20T22:33:20.880Z,17.80
2022-08-20T22:36:35.542Z,17.80
2022-08-20T22:42:48.828Z,17.80
2022-08-20T22:45:15.780Z,17.70
2022-08-20T22:47:49.528Z,17.60
2022-08-20T22:50:42.635Z,17.60
2022-08-20T22:53:42.547Z,18.00
2022-08-20T22:56:09.315Z,18.00
2022-08-20T22:58:50.087Z,17.90
2022-08-20T23:01:21.235Z,17.80
2022-08-20T23:03:48.127Z,17.80
2022-08-20T23:06:27.874Z,18.00
2022-08-20T23:08:54.784Z,17.70
2022-08-20T23:12:05.428Z,17.60
2022-08-20T23:14:32.220Z,17.70
2022-08-20T23:17:41.662Z,17.80
2022-08-20T23:23:50.470Z,17.20
2022-08-20T23:30:27.540Z,17.20
2022-08-20T23:32:54.719Z,17.00
2022-08-20T23:36:20.616Z,17.10
2022-08-20T23:38:53.128Z,17.20
2022-08-20T23:41:19.990Z,17.00
2022-08-20T23:43:46.818Z,17.20
2022-08-20T23:50:54.167Z,17.00
2022-08-20T23:57:08.399Z,17.00
2022-08-20T23:59:35.834Z,16.90
